Climatologie pour Saint-Brevin les Pins
Jour • Résumé pour décembre 9, 2017 Système :  Mixte    Anglais   Métrique
« - 1 jour
+ 1 jour »
Jour Semaine Mois Année Personnalisé
  Maximum : Minimum : Moyenne :
Température sous abri : 46.9 °F /  8.3 °C 34.5 °F /  1.4 °C 40.8 °F /  4.9 °C
Point de rosée : 46 °F /  7.8 °C 32 °F /  0.0 °C 38.3 °F /  3.5 °C
Humidité : 97 % 84 % 91 %
Vitesse du vent : 12 mph /  19.3 km/h - 3 mph /  4.8 km/h
Rafale : 18 mph /  29.0 km/h - -
Direction :- - SSW
Pression : 30.3 in /  1026.0 hPa 29.6 in /  1003.9 hPa -
Précipitations : 0.13 in /  3.3 mm    
Historical Graphs
 
 
Tableau de données pour décembre 9, 2017
Heure Tempé Pt rosée Pression Vent Vitesse Rafale Humidité Taux pluie (/hr) Soleil
00:00 37 °F /  2.8 °C 33.8 °F /  1.0 °C 30.3 in /  1026.0 hPa NNW 4 mph /  6.4 km/h 8 mph /  12.9 km/h 88 % 0 in /  0.0 mm 0 W/m2
00:10 37.2 °F /  2.9 °C 33.8 °F /  1.0 °C 30.3 in /  1026.0 hPa WNW 4 mph /  6.4 km/h 10 mph /  16.1 km/h 87 % 0 in /  0.0 mm 0 W/m2
00:15 37.4 °F /  3.0 °C 33.8 °F /  1.0 °C 30.3 in /  1026.0 hPa NNW 3 mph /  4.8 km/h 8 mph /  12.9 km/h 87 % 0 in /  0.0 mm 0 W/m2
00:20 37.2 °F /  2.9 °C 33.8 °F /  1.0 °C 30.3 in /  1026.0 hPa WNW 2 mph /  3.2 km/h 8 mph /  12.9 km/h 87 % 0 in /  0.0 mm 0 W/m2
00:25 37 °F /  2.8 °C 33.6 °F /  0.9 °C 30.3 in /  1026.0 hPa WNW 2 mph /  3.2 km/h 6 mph /  9.7 km/h 87 % 0 in /  0.0 mm 0 W/m2
00:30 37 °F /  2.8 °C 33.4 °F /  0.8 °C 30.3 in /  1026.0 hPa NNW 3 mph /  4.8 km/h 6 mph /  9.7 km/h 87 % 0 in /  0.0 mm 0 W/m2
00:35 36.9 °F /  2.7 °C 33.6 °F /  0.9 °C 30.3 in /  1026.0 hPa NNW 2 mph /  3.2 km/h 5 mph /  8.0 km/h 88 % 0 in /  0.0 mm 0 W/m2
00:45 36.1 °F /  2.3 °C 32.9 °F /  0.5 °C 30.3 in /  1026.0 hPa NW 4 mph /  6.4 km/h 4 mph /  6.4 km/h 88 % 0 in /  0.0 mm 0 W/m2
00:50 36 °F /  2.2 °C 32.7 °F /  0.4 °C 30.3 in /  1026.0 hPa Calm   6 mph /  9.7 km/h 88 % 0 in /  0.0 mm 0 W/m2
00:55 36 °F /  2.2 °C 32.9 °F /  0.5 °C 30.3 in /  1025.6 hPa Calm   6 mph /  9.7 km/h 89 % 0 in /  0.0 mm 0 W/m2
01:00 35.6 °F /  2.0 °C 32.7 °F /  0.4 °C 30.3 in /  1025.6 hPa Calm   5 mph /  8.0 km/h 89 % 0 in /  0.0 mm 0 W/m2
01:05 35.2 °F /  1.8 °C 32.5 °F /  0.3 °C 30.3 in /  1025.6 hPa Calm   4 mph /  6.4 km/h 90 % 0 in /  0.0 mm 0 W/m2
01:15 34.7 °F /  1.5 °C 32 °F /  0.0 °C 30.3 in /  1025.6 hPa Calm   3 mph /  4.8 km/h 90 % 0 in /  0.0 mm 0 W/m2
01:20 34.9 °F /  1.6 °C 32.2 °F /  0.1 °C 30.3 in /  1025.6 hPa Calm   4 mph /  6.4 km/h 90 % 0 in /  0.0 mm 0 W/m2
01:25 34.5 °F /  1.4 °C 32.2 °F /  0.1 °C 30.3 in /  1025.6 hPa Calm   4 mph /  6.4 km/h 91 % 0 in /  0.0 mm 0 W/m2
01:30 34.5 °F /  1.4 °C 32.2 °F /  0.1 °C 30.3 in /  1025.3 hPa WNW 2 mph /  3.2 km/h 3 mph /  4.8 km/h 91 % 0 in /  0.0 mm 0 W/m2
01:35 34.5 °F /  1.4 °C 32.2 °F /  0.1 °C 30.3 in /  1025.3 hPa NW 3 mph /  4.8 km/h 6 mph /  9.7 km/h 91 % 0 in /  0.0 mm 0 W/m2
01:40 34.5 °F /  1.4 °C 32.2 °F /  0.1 °C 30.3 in /  1025.3 hPa Calm   6 mph /  9.7 km/h 91 % 0 in /  0.0 mm 0 W/m2
01:45 34.9 °F /  1.6 °C 32.7 °F /  0.4 °C 30.3 in /  1025.3 hPa Calm   7 mph /  11.3 km/h 92 % 0 in /  0.0 mm 0 W/m2
01:50 34.7 °F /  1.5 °C 32.5 °F /  0.3 °C 30.3 in /  1025.3 hPa NNW 3 mph /  4.8 km/h 7 mph /  11.3 km/h 92 % 0 in /  0.0 mm 0 W/m2
02:00 35.1 °F /  1.7 °C 33.1 °F /  0.6 °C 30.3 in /  1025.3 hPa North 3 mph /  4.8 km/h 7 mph /  11.3 km/h 92 % 0 in /  0.0 mm 0 W/m2
02:05 35.4 °F /  1.9 °C 33.3 °F /  0.7 °C 30.3 in /  1025.3 hPa NW 1 mph /  1.6 km/h 7 mph /  11.3 km/h 92 % 0 in /  0.0 mm 0 W/m2
02:10 35.6 °F /  2.0 °C 33.4 °F /  0.8 °C 30.3 in /  1025.3 hPa NW 1 mph /  1.6 km/h 8 mph /  12.9 km/h 92 % 0 in /  0.0 mm 0 W/m2
02:15 36.1 °F /  2.3 °C 34 °F /  1.1 °C 30.3 in /  1025.3 hPa NW 1 mph /  1.6 km/h 8 mph /  12.9 km/h 92 % 0 in /  0.0 mm 0 W/m2
02:20 36.5 °F /  2.5 °C 34.3 °F /  1.3 °C 30.3 in /  1024.9 hPa WNW 3 mph /  4.8 km/h 7 mph /  11.3 km/h 92 % 0 in /  0.0 mm 0 W/m2
02:25 36.9 °F /  2.7 °C 34.7 °F /  1.5 °C 30.3 in /  1024.9 hPa WNW 2 mph /  3.2 km/h 7 mph /  11.3 km/h 92 % 0 in /  0.0 mm 0 W/m2
02:30 37.2 °F /  2.9 °C 34.9 °F /  1.6 °C 30.3 in /  1024.9 hPa NW 4 mph /  6.4 km/h 7 mph /  11.3 km/h 91 % 0 in /  0.0 mm 0 W/m2
02:40 37.8 °F /  3.2 °C 35.1 °F /  1.7 °C 30.3 in /  1024.9 hPa NW 6 mph /  9.7 km/h 10 mph /  16.1 km/h 90 % 0 in /  0.0 mm 0 W/m2
02:45 38.5 °F /  3.6 °C 35.8 °F /  2.1 °C 30.3 in /  1024.9 hPa NW 4 mph /  6.4 km/h 7 mph /  11.3 km/h 90 % 0 in /  0.0 mm 0 W/m2
02:50 39 °F /  3.9 °C 36.1 °F /  2.3 °C 30.3 in /  1024.9 hPa WNW 5 mph /  8.0 km/h 9 mph /  14.5 km/h 89 % 0 in /  0.0 mm 0 W/m2
02:55 39.7 °F /  4.3 °C 36.1 °F /  2.3 °C 30.3 in /  1024.9 hPa NW 6 mph /  9.7 km/h 10 mph /  16.1 km/h 87 % 0 in /  0.0 mm 0 W/m2
03:00 40.3 °F /  4.6 °C 36.5 °F /  2.5 °C 30.3 in /  1024.9 hPa WNW 7 mph /  11.3 km/h 10 mph /  16.1 km/h 86 % 0 in /  0.0 mm 0 W/m2
03:10 40.5 °F /  4.7 °C 36.3 °F /  2.4 °C 30.3 in /  1024.9 hPa NW 5 mph /  8.0 km/h 10 mph /  16.1 km/h 85 % 0 in /  0.0 mm 0 W/m2
03:15 40.6 °F /  4.8 °C 36.1 °F /  2.3 °C 30.3 in /  1024.9 hPa West 6 mph /  9.7 km/h 10 mph /  16.1 km/h 84 % 0 in /  0.0 mm 0 W/m2
03:20 40.3 °F /  4.6 °C 35.8 °F /  2.1 °C 30.3 in /  1024.9 hPa NW 8 mph /  12.9 km/h 9 mph /  14.5 km/h 84 % 0 in /  0.0 mm 0 W/m2
03:30 39.7 °F /  4.3 °C 35.6 °F /  2.0 °C 30.3 in /  1024.9 hPa WNW 3 mph /  4.8 km/h 12 mph /  19.3 km/h 85 % 0 in /  0.0 mm 0 W/m2
03:35 40.3 °F /  4.6 °C 35.8 °F /  2.1 °C 30.3 in /  1024.6 hPa WNW 5 mph /  8.0 km/h 9 mph /  14.5 km/h 84 % 0 in /  0.0 mm 0 W/m2
03:40 40.5 °F /  4.7 °C 36 °F /  2.2 °C 30.3 in /  1024.6 hPa NW 1 mph /  1.6 km/h 9 mph /  14.5 km/h 84 % 0 in /  0.0 mm 0 W/m2
03:45 40.3 °F /  4.6 °C 35.8 °F /  2.1 °C 30.3 in /  1024.6 hPa NW 1 mph /  1.6 km/h 8 mph /  12.9 km/h 84 % 0 in /  0.0 mm 0 W/m2
03:50 39.9 °F /  4.4 °C 35.6 °F /  2.0 °C 30.3 in /  1024.6 hPa NNW 9 mph /  14.5 km/h 9 mph /  14.5 km/h 84 % 0 in /  0.0 mm 0 W/m2
03:55 39.9 °F /  4.4 °C 35.4 °F /  1.9 °C 30.3 in /  1024.6 hPa WNW 4 mph /  6.4 km/h 9 mph /  14.5 km/h 84 % 0 in /  0.0 mm 0 W/m2
04:00 39.7 °F /  4.3 °C 35.6 °F /  2.0 °C 30.3 in /  1024.6 hPa WNW 3 mph /  4.8 km/h 9 mph /  14.5 km/h 85 % 0 in /  0.0 mm 0 W/m2
04:05 39.9 °F /  4.4 °C 35.8 °F /  2.1 °C 30.3 in /  1024.6 hPa NW 2 mph /  3.2 km/h 9 mph /  14.5 km/h 85 % 0 in /  0.0 mm 0 W/m2
04:20 39.4 °F /  4.1 °C 35.8 °F /  2.1 °C 30.3 in /  1024.6 hPa WNW 2 mph /  3.2 km/h 10 mph /  16.1 km/h 87 % 0 in /  0.0 mm 0 W/m2
04:30 39.4 °F /  4.1 °C 35.4 °F /  1.9 °C 30.3 in /  1024.6 hPa WNW 3 mph /  4.8 km/h 7 mph /  11.3 km/h 86 % 0 in /  0.0 mm 0 W/m2
04:35 39.4 °F /  4.1 °C 35.8 °F /  2.1 °C 30.3 in /  1024.6 hPa NW 3 mph /  4.8 km/h 7 mph /  11.3 km/h 87 % 0 in /  0.0 mm 0 W/m2
04:45 39.7 °F /  4.3 °C 36.3 °F /  2.4 °C 30.3 in /  1024.3 hPa WNW 3 mph /  4.8 km/h 8 mph /  12.9 km/h 87 % 0 in /  0.0 mm 0 W/m2
04:50 39.9 °F /  4.4 °C 36.1 °F /  2.3 °C 30.3 in /  1024.3 hPa WNW 2 mph /  3.2 km/h 9 mph /  14.5 km/h 86 % 0 in /  0.0 mm 0 W/m2
04:55 40.1 °F /  4.5 °C 36.3 °F /  2.4 °C 30.3 in /  1024.3 hPa WNW 7 mph /  11.3 km/h 9 mph /  14.5 km/h 86 % 0 in /  0.0 mm 0 W/m2
05:00 40.1 °F /  4.5 °C 36.3 °F /  2.4 °C 30.3 in /  1024.3 hPa WNW 4 mph /  6.4 km/h 9 mph /  14.5 km/h 86 % 0 in /  0.0 mm 0 W/m2
05:05 40.1 °F /  4.5 °C 36.3 °F /  2.4 °C 30.3 in /  1024.3 hPa NW 1 mph /  1.6 km/h 9 mph /  14.5 km/h 86 % 0 in /  0.0 mm 0 W/m2
05:10 39.9 °F /  4.4 °C 36.1 °F /  2.3 °C 30.3 in /  1024.3 hPa NW 4 mph /  6.4 km/h 9 mph /  14.5 km/h 86 % 0 in /  0.0 mm 0 W/m2
05:15 39.4 °F /  4.1 °C 35.8 °F /  2.1 °C 30.3 in /  1024.3 hPa NW 1 mph /  1.6 km/h 7 mph /  11.3 km/h 87 % 0 in /  0.0 mm 0 W/m2
05:20 38.8 °F /  3.8 °C 35.2 °F /  1.8 °C 30.3 in /  1024.3 hPa Calm   5 mph /  8.0 km/h 87 % 0 in /  0.0 mm 0 W/m2
05:25 38.8 °F /  3.8 °C 35.6 °F /  2.0 °C 30.3 in /  1024.3 hPa NW 2 mph /  3.2 km/h 6 mph /  9.7 km/h 88 % 0 in /  0.0 mm 0 W/m2
05:35 39.7 °F /  4.3 °C 36.7 °F /  2.6 °C 30.3 in /  1024.3 hPa NW 3 mph /  4.8 km/h 6 mph /  9.7 km/h 89 % 0 in /  0.0 mm 0 W/m2
05:40 39.9 °F /  4.4 °C 36.7 °F /  2.6 °C 30.3 in /  1024.3 hPa WNW 2 mph /  3.2 km/h 6 mph /  9.7 km/h 88 % 0 in /  0.0 mm 0 W/m2
06:00 40.5 °F /  4.7 °C 36.9 °F /  2.7 °C 30.3 in /  1024.3 hPa WNW 2 mph /  3.2 km/h 5 mph /  8.0 km/h 87 % 0 in /  0.0 mm 0 W/m2
06:05 40.3 °F /  4.6 °C 36.7 °F /  2.6 °C 30.3 in /  1024.3 hPa NW 3 mph /  4.8 km/h 6 mph /  9.7 km/h 87 % 0 in /  0.0 mm 0 W/m2
06:10 39.9 °F /  4.4 °C 36.5 °F /  2.5 °C 30.2 in /  1023.9 hPa WNW 2 mph /  3.2 km/h 6 mph /  9.7 km/h 87 % 0 in /  0.0 mm 0 W/m2
06:15 39.9 °F /  4.4 °C 36.5 °F /  2.5 °C 30.2 in /  1023.9 hPa WNW 4 mph /  6.4 km/h 7 mph /  11.3 km/h 87 % 0 in /  0.0 mm 0 W/m2
06:25 39.6 °F /  4.2 °C 36.3 °F /  2.4 °C 30.2 in /  1023.9 hPa WNW 3 mph /  4.8 km/h 6 mph /  9.7 km/h 88 % 0 in /  0.0 mm 0 W/m2
06:30 39.6 °F /  4.2 °C 36.3 °F /  2.4 °C 30.2 in /  1023.6 hPa WNW 4 mph /  6.4 km/h 6 mph /  9.7 km/h 88 % 0 in /  0.0 mm 0 W/m2
06:45 39.6 °F /  4.2 °C 36.3 °F /  2.4 °C 30.2 in /  1023.6 hPa Calm   10 mph /  16.1 km/h 88 % 0 in /  0.0 mm 0 W/m2
06:55 39.6 °F /  4.2 °C 36 °F /  2.2 °C 30.2 in /  1023.6 hPa NW 5 mph /  8.0 km/h 7 mph /  11.3 km/h 87 % 0 in /  0.0 mm 0 W/m2
07:00 39.7 °F /  4.3 °C 36.5 °F /  2.5 °C 30.2 in /  1023.6 hPa NW 4 mph /  6.4 km/h 9 mph /  14.5 km/h 88 % 0 in /  0.0 mm 0 W/m2
07:10 39.9 °F /  4.4 °C 36.7 °F /  2.6 °C 30.2 in /  1023.6 hPa NNW 4 mph /  6.4 km/h 9 mph /  14.5 km/h 88 % 0 in /  0.0 mm 0 W/m2
07:15 40.1 °F /  4.5 °C 36.5 °F /  2.5 °C 30.2 in /  1023.6 hPa Calm   9 mph /  14.5 km/h 87 % 0 in /  0.0 mm 0 W/m2
07:20 39.9 °F /  4.4 °C 36.7 °F /  2.6 °C 30.2 in /  1023.6 hPa WNW 3 mph /  4.8 km/h 8 mph /  12.9 km/h 88 % 0 in /  0.0 mm 0 W/m2
07:25 39.7 °F /  4.3 °C 36.5 °F /  2.5 °C 30.2 in /  1023.6 hPa WNW 2 mph /  3.2 km/h 8 mph /  12.9 km/h 88 % 0 in /  0.0 mm 0 W/m2
07:35 39.6 °F /  4.2 °C 36.7 °F /  2.6 °C 30.2 in /  1023.9 hPa WNW 2 mph /  3.2 km/h 7 mph /  11.3 km/h 89 % 0 in /  0.0 mm 0 W/m2
07:45 39.2 °F /  4.0 °C 36.3 °F /  2.4 °C 30.2 in /  1023.9 hPa WNW 4 mph /  6.4 km/h 5 mph /  8.0 km/h 89 % 0 in /  0.0 mm 0 W/m2
07:50 38.8 °F /  3.8 °C 36 °F /  2.2 °C 30.2 in /  1023.9 hPa WNW 1 mph /  1.6 km/h 5 mph /  8.0 km/h 89 % 0 in /  0.0 mm 0 W/m2
07:55 38.5 °F /  3.6 °C 35.8 °F /  2.1 °C 30.2 in /  1023.9 hPa NNW 6 mph /  9.7 km/h 6 mph /  9.7 km/h 90 % 0 in /  0.0 mm 0 W/m2
08:05 38.7 °F /  3.7 °C 36 °F /  2.2 °C 30.2 in /  1023.9 hPa Calm   6 mph /  9.7 km/h 90 % 0 in /  0.0 mm 0 W/m2
08:20 37.9 °F /  3.3 °C 35.6 °F /  2.0 °C 30.2 in /  1023.9 hPa NW 1 mph /  1.6 km/h 4 mph /  6.4 km/h 91 % 0 in /  0.0 mm 0 W/m2
08:25 37.8 °F /  3.2 °C 35.2 °F /  1.8 °C 30.2 in /  1023.6 hPa Calm   3 mph /  4.8 km/h 91 % 0 in /  0.0 mm 0 W/m2
08:30 37.4 °F /  3.0 °C 35.2 °F /  1.8 °C 30.2 in /  1023.6 hPa Calm   5 mph /  8.0 km/h 92 % 0 in /  0.0 mm 0 W/m2
08:40 37 °F /  2.8 °C 35.1 °F /  1.7 °C 30.2 in /  1023.6 hPa NW 2 mph /  3.2 km/h 4 mph /  6.4 km/h 92 % 0 in /  0.0 mm 5 W/m2
08:45 37 °F /  2.8 °C 35.1 °F /  1.7 °C 30.2 in /  1023.6 hPa Calm   4 mph /  6.4 km/h 92 % 0 in /  0.0 mm 5 W/m2
08:50 37 °F /  2.8 °C 35.2 °F /  1.8 °C 30.2 in /  1023.6 hPa Calm   3 mph /  4.8 km/h 93 % 0 in /  0.0 mm 7 W/m2
08:55 37 °F /  2.8 °C 35.2 °F /  1.8 °C 30.2 in /  1023.6 hPa Calm   2 mph /  3.2 km/h 93 % 0 in /  0.0 mm 11 W/m2
09:00 37 °F /  2.8 °C 35.2 °F /  1.8 °C 30.2 in /  1023.6 hPa Calm   1 mph /  1.6 km/h 93 % 0 in /  0.0 mm 14 W/m2
09:10 36.9 °F /  2.7 °C 34.9 °F /  1.6 °C 30.2 in /  1023.6 hPa Calm   1 mph /  1.6 km/h 93 % 0 in /  0.0 mm 23 W/m2
09:15 37.2 °F /  2.9 °C 35.4 °F /  1.9 °C 30.2 in /  1023.6 hPa Calm   4 mph /  6.4 km/h 93 % 0 in /  0.0 mm 26 W/m2
09:20 37.9 °F /  3.3 °C 36.3 °F /  2.4 °C 30.2 in /  1023.2 hPa Calm   4 mph /  6.4 km/h 94 % 0 in /  0.0 mm 30 W/m2
09:30 37.8 °F /  3.2 °C 36 °F /  2.2 °C 30.2 in /  1023.6 hPa Calm   5 mph /  8.0 km/h 93 % 0 in /  0.0 mm 39 W/m2
09:35 37.6 °F /  3.1 °C 35.4 °F /  1.9 °C 30.2 in /  1023.6 hPa ESE 3 mph /  4.8 km/h 5 mph /  8.0 km/h 92 % 0 in /  0.0 mm 46 W/m2
09:45 37.4 °F /  3.0 °C 35.2 °F /  1.8 °C 30.2 in /  1023.6 hPa ESE 2 mph /  3.2 km/h 3 mph /  4.8 km/h 92 % 0 in /  0.0 mm 54 W/m2
09:50 37.2 °F /  2.9 °C 35.2 °F /  1.8 °C 30.2 in /  1023.6 hPa ESE 1 mph /  1.6 km/h 3 mph /  4.8 km/h 92 % 0 in /  0.0 mm 60 W/m2
09:55 37.2 °F /  2.9 °C 35.2 °F /  1.8 °C 30.2 in /  1023.6 hPa Calm   3 mph /  4.8 km/h 92 % 0 in /  0.0 mm 65 W/m2
10:00 37.4 °F /  3.0 °C 35.2 °F /  1.8 °C 30.2 in /  1023.6 hPa Calm   3 mph /  4.8 km/h 92 % 0 in /  0.0 mm 76 W/m2
10:05 37.6 °F /  3.1 °C 35.4 °F /  1.9 °C 30.2 in /  1023.2 hPa Calm   2 mph /  3.2 km/h 92 % 0 in /  0.0 mm 81 W/m2
10:10 37.6 °F /  3.1 °C 35.4 °F /  1.9 °C 30.2 in /  1023.2 hPa Calm   2 mph /  3.2 km/h 92 % 0 in /  0.0 mm 83 W/m2
10:20 37.8 °F /  3.2 °C 35.6 °F /  2.0 °C 30.2 in /  1023.2 hPa Calm   4 mph /  6.4 km/h 92 % 0 in /  0.0 mm 90 W/m2
10:25 37.9 °F /  3.3 °C 35.6 °F /  2.0 °C 30.2 in /  1023.2 hPa ESE 2 mph /  3.2 km/h 4 mph /  6.4 km/h 91 % 0 in /  0.0 mm 93 W/m2
10:30 37.9 °F /  3.3 °C 35.4 °F /  1.9 °C 30.2 in /  1023.2 hPa SE 2 mph /  3.2 km/h 4 mph /  6.4 km/h 91 % 0 in /  0.0 mm 98 W/m2
10:35 37.9 °F /  3.3 °C 35.4 °F /  1.9 °C 30.2 in /  1022.9 hPa SE 4 mph /  6.4 km/h 4 mph /  6.4 km/h 91 % 0 in /  0.0 mm 105 W/m2
10:45 37.9 °F /  3.3 °C 35.6 °F /  2.0 °C 30.2 in /  1023.2 hPa SE 1 mph /  1.6 km/h 4 mph /  6.4 km/h 91 % 0 in /  0.0 mm 116 W/m2
10:50 38.1 °F /  3.4 °C 35.8 °F /  2.1 °C 30.2 in /  1023.2 hPa SE 3 mph /  4.8 km/h 3 mph /  4.8 km/h 91 % 0 in /  0.0 mm 109 W/m2
10:55 38.5 °F /  3.6 °C 36 °F /  2.2 °C 30.2 in /  1023.2 hPa SE 2 mph /  3.2 km/h 3 mph /  4.8 km/h 91 % 0 in /  0.0 mm 114 W/m2
11:05 38.8 °F /  3.8 °C 36.1 °F /  2.3 °C 30.2 in /  1023.2 hPa Calm   5 mph /  8.0 km/h 90 % 0 in /  0.0 mm 127 W/m2
11:10 39.4 °F /  4.1 °C 36.7 °F /  2.6 °C 30.2 in /  1023.2 hPa ESE 1 mph /  1.6 km/h 5 mph /  8.0 km/h 90 % 0 in /  0.0 mm 139 W/m2
11:15 39.6 °F /  4.2 °C 36.5 °F /  2.5 °C 30.2 in /  1023.2 hPa SSE 3 mph /  4.8 km/h 5 mph /  8.0 km/h 89 % 0 in /  0.0 mm 130 W/m2
11:25 39.6 °F /  4.2 °C 36.7 °F /  2.6 °C 30.2 in /  1022.9 hPa Calm   5 mph /  8.0 km/h 89 % 0 in /  0.0 mm 139 W/m2
11:30 39.9 °F /  4.4 °C 37 °F /  2.8 °C 30.2 in /  1022.9 hPa Calm   3 mph /  4.8 km/h 89 % 0 in /  0.0 mm 174 W/m2
11:35 40.5 °F /  4.7 °C 37.6 °F /  3.1 °C 30.2 in /  1022.9 hPa SE 3 mph /  4.8 km/h 5 mph /  8.0 km/h 89 % 0 in /  0.0 mm 218 W/m2
11:40 40.8 °F /  4.9 °C 37.6 °F /  3.1 °C 30.2 in /  1022.9 hPa SE 4 mph /  6.4 km/h 5 mph /  8.0 km/h 88 % 0 in /  0.0 mm 183 W/m2
11:45 40.8 °F /  4.9 °C 37.4 °F /  3.0 °C 30.2 in /  1022.9 hPa Calm   5 mph /  8.0 km/h 87 % 0 in /  0.0 mm 163 W/m2
11:50 41.2 °F /  5.1 °C 37.6 °F /  3.1 °C 30.2 in /  1022.6 hPa ESE 4 mph /  6.4 km/h 4 mph /  6.4 km/h 87 % 0 in /  0.0 mm 148 W/m2
11:55 41.4 °F /  5.2 °C 37.8 °F /  3.2 °C 30.2 in /  1022.6 hPa SE 2 mph /  3.2 km/h 4 mph /  6.4 km/h 87 % 0 in /  0.0 mm 141 W/m2
12:00 41.4 °F /  5.2 °C 37.8 °F /  3.2 °C 30.2 in /  1022.6 hPa SE 3 mph /  4.8 km/h 5 mph /  8.0 km/h 87 % 0 in /  0.0 mm 130 W/m2
12:05 41.5 °F /  5.3 °C 38.3 °F /  3.5 °C 30.2 in /  1022.2 hPa Calm   5 mph /  8.0 km/h 88 % 0 in /  0.0 mm 141 W/m2
12:10 41.5 °F /  5.3 °C 38.3 °F /  3.5 °C 30.2 in /  1022.2 hPa SE 4 mph /  6.4 km/h 6 mph /  9.7 km/h 88 % 0 in /  0.0 mm 130 W/m2
12:20 41.5 °F /  5.3 °C 38.7 °F /  3.7 °C 30.2 in /  1021.9 hPa Calm   7 mph /  11.3 km/h 89 % 0 in /  0.0 mm 132 W/m2
12:25 41.5 °F /  5.3 °C 38.3 °F /  3.5 °C 30.2 in /  1021.9 hPa SSE 4 mph /  6.4 km/h 6 mph /  9.7 km/h 88 % 0 in /  0.0 mm 137 W/m2
12:40 41.7 °F /  5.4 °C 38.1 °F /  3.4 °C 30.2 in /  1021.6 hPa ESE 2 mph /  3.2 km/h 7 mph /  11.3 km/h 87 % 0 in /  0.0 mm 121 W/m2
12:45 41.7 °F /  5.4 °C 38.1 °F /  3.4 °C 30.2 in /  1021.6 hPa SE 3 mph /  4.8 km/h 6 mph /  9.7 km/h 87 % 0 in /  0.0 mm 137 W/m2
12:55 41.7 °F /  5.4 °C 38.1 °F /  3.4 °C 30.2 in /  1021.2 hPa South 4 mph /  6.4 km/h 6 mph /  9.7 km/h 87 % 0 in /  0.0 mm 109 W/m2
13:00 41.7 °F /  5.4 °C 38.3 °F /  3.5 °C 30.2 in /  1021.2 hPa South 2 mph /  3.2 km/h 6 mph /  9.7 km/h 87 % 0 in /  0.0 mm 111 W/m2
13:05 41.9 °F /  5.5 °C 38.3 °F /  3.5 °C 30.2 in /  1021.2 hPa SSE 4 mph /  6.4 km/h 6 mph /  9.7 km/h 87 % 0 in /  0.0 mm 104 W/m2
13:10 42.3 °F /  5.7 °C 38.7 °F /  3.7 °C 30.2 in /  1020.9 hPa SSE 2 mph /  3.2 km/h 6 mph /  9.7 km/h 87 % 0 in /  0.0 mm 134 W/m2
13:15 42.6 °F /  5.9 °C 39 °F /  3.9 °C 30.2 in /  1020.9 hPa SSE 3 mph /  4.8 km/h 7 mph /  11.3 km/h 87 % 0 in /  0.0 mm 179 W/m2
13:20 43 °F /  6.1 °C 39 °F /  3.9 °C 30.2 in /  1020.9 hPa South 5 mph /  8.0 km/h 7 mph /  11.3 km/h 86 % 0 in /  0.0 mm 151 W/m2
13:25 43 °F /  6.1 °C 38.8 °F /  3.8 °C 30.2 in /  1020.9 hPa SSE 4 mph /  6.4 km/h 7 mph /  11.3 km/h 85 % 0 in /  0.0 mm 121 W/m2
13:30 43.2 °F /  6.2 °C 39 °F /  3.9 °C 30.2 in /  1020.9 hPa SE 1 mph /  1.6 km/h 6 mph /  9.7 km/h 85 % 0 in /  0.0 mm 113 W/m2
13:35 43.3 °F /  6.3 °C 39.2 °F /  4.0 °C 30.1 in /  1020.5 hPa SSE 3 mph /  4.8 km/h 5 mph /  8.0 km/h 85 % 0 in /  0.0 mm 123 W/m2
13:40 43.7 °F /  6.5 °C 39.6 °F /  4.2 °C 30.1 in /  1020.5 hPa SE 2 mph /  3.2 km/h 5 mph /  8.0 km/h 85 % 0 in /  0.0 mm 137 W/m2
13:45 43.9 °F /  6.6 °C 39.7 °F /  4.3 °C 30.1 in /  1020.2 hPa SSE 2 mph /  3.2 km/h 8 mph /  12.9 km/h 85 % 0 in /  0.0 mm 120 W/m2
13:50 43.9 °F /  6.6 °C 39.2 °F /  4.0 °C 30.1 in /  1020.2 hPa SSE 4 mph /  6.4 km/h 8 mph /  12.9 km/h 84 % 0 in /  0.0 mm 76 W/m2
14:00 43.7 °F /  6.5 °C 39.6 °F /  4.2 °C 30.1 in /  1019.9 hPa SSE 5 mph /  8.0 km/h 7 mph /  11.3 km/h 85 % 0.01 in /  0.3 mm 53 W/m2
14:05 43.5 °F /  6.4 °C 39.9 °F /  4.4 °C 30.1 in /  1019.9 hPa South 1 mph /  1.6 km/h 7 mph /  11.3 km/h 87 % 0.01 in /  0.3 mm 72 W/m2
14:10 43.3 °F /  6.3 °C 40.5 °F /  4.7 °C 30.1 in /  1019.5 hPa South 2 mph /  3.2 km/h 7 mph /  11.3 km/h 89 % 0.01 in /  0.3 mm 98 W/m2
14:20 43.5 °F /  6.4 °C 40.8 °F /  4.9 °C 30.1 in /  1019.5 hPa SE 3 mph /  4.8 km/h 4 mph /  6.4 km/h 90 % 0.01 in /  0.3 mm 93 W/m2
14:25 43.5 °F /  6.4 °C 40.8 °F /  4.9 °C 30.1 in /  1019.2 hPa SE 4 mph /  6.4 km/h 5 mph /  8.0 km/h 90 % 0.01 in /  0.3 mm 93 W/m2
14:30 43.5 °F /  6.4 °C 40.8 °F /  4.9 °C 30.1 in /  1019.2 hPa Calm   5 mph /  8.0 km/h 90 % 0.01 in /  0.3 mm 88 W/m2
14:45 43.7 °F /  6.5 °C 41 °F /  5.0 °C 30.1 in /  1018.8 hPa Calm   5 mph /  8.0 km/h 90 % 0.01 in /  0.3 mm 69 W/m2
14:50 43.7 °F /  6.5 °C 41 °F /  5.0 °C 30.1 in /  1018.8 hPa SSE 2 mph /  3.2 km/h 5 mph /  8.0 km/h 90 % 0.01 in /  0.3 mm 65 W/m2
14:55 43.7 °F /  6.5 °C 41 °F /  5.0 °C 30.1 in /  1018.5 hPa South 2 mph /  3.2 km/h 5 mph /  8.0 km/h 90 % 0.02 in /  0.5 mm 60 W/m2
15:00 43.9 °F /  6.6 °C 41 °F /  5.0 °C 30.1 in /  1018.5 hPa Calm   5 mph /  8.0 km/h 90 % 0.01 in /  0.3 mm 44 W/m2
15:10 43.9 °F /  6.6 °C 41 °F /  5.0 °C 30.1 in /  1018.2 hPa SSE 2 mph /  3.2 km/h 6 mph /  9.7 km/h 90 % 0.01 in /  0.3 mm 40 W/m2
15:20 43.9 °F /  6.6 °C 41 °F /  5.0 °C 30.1 in /  1017.8 hPa SSE 2 mph /  3.2 km/h 8 mph /  12.9 km/h 90 % 0.01 in /  0.3 mm 54 W/m2
15:25 43.9 °F /  6.6 °C 41.2 °F /  5.1 °C 30.1 in /  1017.5 hPa SSE 2 mph /  3.2 km/h 8 mph /  12.9 km/h 90 % 0.01 in /  0.3 mm 54 W/m2
15:30 44.1 °F /  6.7 °C 41.2 °F /  5.1 °C 30.1 in /  1017.5 hPa SSE 2 mph /  3.2 km/h 6 mph /  9.7 km/h 90 % 0.01 in /  0.3 mm 40 W/m2
15:40 44.1 °F /  6.7 °C 41.2 °F /  5.1 °C 30.1 in /  1017.5 hPa SSE 2 mph /  3.2 km/h 4 mph /  6.4 km/h 90 % 0.01 in /  0.3 mm 39 W/m2
15:45 44.1 °F /  6.7 °C 41.2 °F /  5.1 °C 30 in /  1017.2 hPa SSE 2 mph /  3.2 km/h 5 mph /  8.0 km/h 90 % 0.01 in /  0.3 mm 37 W/m2
15:55 44.2 °F /  6.8 °C 41.5 °F /  5.3 °C 30 in /  1017.2 hPa SSE 1 mph /  1.6 km/h 4 mph /  6.4 km/h 90 % 0 in /  0.0 mm 23 W/m2
16:05 44.2 °F /  6.8 °C 41.5 °F /  5.3 °C 30 in /  1016.8 hPa South 4 mph /  6.4 km/h 5 mph /  8.0 km/h 90 % 0 in /  0.0 mm 21 W/m2
16:10 44.2 °F /  6.8 °C 41.5 °F /  5.3 °C 30 in /  1016.8 hPa SSE 2 mph /  3.2 km/h 5 mph /  8.0 km/h 90 % 0 in /  0.0 mm 21 W/m2
16:15 44.2 °F /  6.8 °C 41.5 °F /  5.3 °C 30 in /  1016.8 hPa SSE 2 mph /  3.2 km/h 5 mph /  8.0 km/h 90 % 0 in /  0.0 mm 19 W/m2
16:20 44.2 °F /  6.8 °C 41.7 °F /  5.4 °C 30 in /  1016.5 hPa South 2 mph /  3.2 km/h 6 mph /  9.7 km/h 91 % 0 in /  0.0 mm 21 W/m2
16:30 44.2 °F /  6.8 °C 41.9 °F /  5.5 °C 30 in /  1016.5 hPa SSW 5 mph /  8.0 km/h 8 mph /  12.9 km/h 91 % 0.01 in /  0.3 mm 21 W/m2
16:35 44.2 °F /  6.8 °C 41.5 °F /  5.3 °C 30 in /  1016.5 hPa SSW 5 mph /  8.0 km/h 8 mph /  12.9 km/h 90 % 0.01 in /  0.3 mm 16 W/m2
16:40 44.2 °F /  6.8 °C 41.5 °F /  5.3 °C 30 in /  1016.1 hPa SSW 5 mph /  8.0 km/h 7 mph /  11.3 km/h 90 % 0.01 in /  0.3 mm 14 W/m2
16:45 44.2 °F /  6.8 °C 41.7 °F /  5.4 °C 30 in /  1016.1 hPa South 3 mph /  4.8 km/h 7 mph /  11.3 km/h 91 % 0.01 in /  0.3 mm 12 W/m2
16:50 44.1 °F /  6.7 °C 41.7 °F /  5.4 °C 30 in /  1015.8 hPa South 3 mph /  4.8 km/h 7 mph /  11.3 km/h 91 % 0.01 in /  0.3 mm 9 W/m2
16:55 44.1 °F /  6.7 °C 41.5 °F /  5.3 °C 30 in /  1015.8 hPa South 4 mph /  6.4 km/h 7 mph /  11.3 km/h 91 % 0.01 in /  0.3 mm 5 W/m2
17:00 43.9 °F /  6.6 °C 41.4 °F /  5.2 °C 30 in /  1015.8 hPa South 3 mph /  4.8 km/h 7 mph /  11.3 km/h 91 % 0.01 in /  0.3 mm 0 W/m2
17:05 43.9 °F /  6.6 °C 41.4 °F /  5.2 °C 30 in /  1015.8 hPa SSE 1 mph /  1.6 km/h 5 mph /  8.0 km/h 91 % 0.01 in /  0.3 mm 0 W/m2
17:10 43.9 °F /  6.6 °C 41.4 °F /  5.2 °C 30 in /  1015.8 hPa SE 4 mph /  6.4 km/h 5 mph /  8.0 km/h 91 % 0.01 in /  0.3 mm 0 W/m2
17:20 43.7 °F /  6.5 °C 41.5 °F /  5.3 °C 30 in /  1015.5 hPa SE 3 mph /  4.8 km/h 5 mph /  8.0 km/h 92 % 0.01 in /  0.3 mm 0 W/m2
17:25 43.5 °F /  6.4 °C 41.4 °F /  5.2 °C 30 in /  1015.5 hPa SE 3 mph /  4.8 km/h 4 mph /  6.4 km/h 92 % 0.02 in /  0.5 mm 0 W/m2
17:30 43.3 °F /  6.3 °C 41.2 °F /  5.1 °C 30 in /  1015.1 hPa SE 1 mph /  1.6 km/h 4 mph /  6.4 km/h 92 % 0.01 in /  0.3 mm 0 W/m2
17:35 43.2 °F /  6.2 °C 41.4 °F /  5.2 °C 30 in /  1015.1 hPa SSE 3 mph /  4.8 km/h 6 mph /  9.7 km/h 93 % 0.01 in /  0.3 mm 0 W/m2
17:40 43.2 °F /  6.2 °C 41.2 °F /  5.1 °C 30 in /  1014.8 hPa Calm   6 mph /  9.7 km/h 93 % 0.01 in /  0.3 mm 0 W/m2
17:45 43.2 °F /  6.2 °C 41.2 °F /  5.1 °C 30 in /  1014.8 hPa Calm   5 mph /  8.0 km/h 93 % 0.01 in /  0.3 mm 0 W/m2
17:50 43 °F /  6.1 °C 41.2 °F /  5.1 °C 30 in /  1014.4 hPa SSE 2 mph /  3.2 km/h 5 mph /  8.0 km/h 93 % 0.01 in /  0.3 mm 0 W/m2
17:55 43 °F /  6.1 °C 41 °F /  5.0 °C 30 in /  1014.4 hPa SSE 1 mph /  1.6 km/h 5 mph /  8.0 km/h 93 % 0.01 in /  0.3 mm 0 W/m2
18:00 43 °F /  6.1 °C 41.4 °F /  5.2 °C 30 in /  1014.4 hPa Calm   4 mph /  6.4 km/h 94 % 0.01 in /  0.3 mm 0 W/m2
18:20 42.8 °F /  6.0 °C 41.2 °F /  5.1 °C 29.9 in /  1013.8 hPa SSE 2 mph /  3.2 km/h 8 mph /  12.9 km/h 94 % 0.01 in /  0.3 mm 0 W/m2
18:30 42.6 °F /  5.9 °C 41.2 °F /  5.1 °C 29.9 in /  1013.8 hPa SSE 3 mph /  4.8 km/h 5 mph /  8.0 km/h 94 % 0 in /  0.0 mm 0 W/m2
18:35 42.6 °F /  5.9 °C 41.2 °F /  5.1 °C 29.9 in /  1013.4 hPa SSE 3 mph /  4.8 km/h 5 mph /  8.0 km/h 94 % 0 in /  0.0 mm 0 W/m2
18:40 42.6 °F /  5.9 °C 40.6 °F /  4.8 °C 29.9 in /  1013.8 hPa SE 4 mph /  6.4 km/h 7 mph /  11.3 km/h 93 % 0.01 in /  0.3 mm 0 W/m2
18:45 42.6 °F /  5.9 °C 40.6 °F /  4.8 °C 29.9 in /  1013.8 hPa SSE 3 mph /  4.8 km/h 7 mph /  11.3 km/h 93 % 0.01 in /  0.3 mm 0 W/m2
18:50 42.6 °F /  5.9 °C 40.6 °F /  4.8 °C 29.9 in /  1013.4 hPa SSE 5 mph /  8.0 km/h 6 mph /  9.7 km/h 93 % 0.01 in /  0.3 mm 0 W/m2
18:55 42.6 °F /  5.9 °C 41.2 °F /  5.1 °C 29.9 in /  1013.4 hPa SSE 5 mph /  8.0 km/h 6 mph /  9.7 km/h 94 % 0.01 in /  0.3 mm 0 W/m2
19:00 42.6 °F /  5.9 °C 40.8 °F /  4.9 °C 29.9 in /  1013.1 hPa SSE 3 mph /  4.8 km/h 8 mph /  12.9 km/h 93 % 0.01 in /  0.3 mm 0 W/m2
19:10 42.8 °F /  6.0 °C 41.2 °F /  5.1 °C 29.9 in /  1013.1 hPa SSE 2 mph /  3.2 km/h 7 mph /  11.3 km/h 94 % 0.01 in /  0.3 mm 0 W/m2
19:15 42.6 °F /  5.9 °C 41.2 °F /  5.1 °C 29.9 in /  1013.1 hPa SSE 2 mph /  3.2 km/h 7 mph /  11.3 km/h 94 % 0.02 in /  0.5 mm 0 W/m2
19:20 42.8 °F /  6.0 °C 41.2 °F /  5.1 °C 29.9 in /  1012.8 hPa SSE 5 mph /  8.0 km/h 8 mph /  12.9 km/h 94 % 0.02 in /  0.5 mm 0 W/m2
19:25 42.6 °F /  5.9 °C 41.2 °F /  5.1 °C 29.9 in /  1012.8 hPa SSE 3 mph /  4.8 km/h 8 mph /  12.9 km/h 94 % 0.02 in /  0.5 mm 0 W/m2
19:35 42.6 °F /  5.9 °C 41.2 °F /  5.1 °C 29.9 in /  1012.4 hPa SSE 4 mph /  6.4 km/h 7 mph /  11.3 km/h 94 % 0.02 in /  0.5 mm 0 W/m2
19:40 42.6 °F /  5.9 °C 41.4 °F /  5.2 °C 29.9 in /  1012.4 hPa SSE 2 mph /  3.2 km/h 7 mph /  11.3 km/h 95 % 0.02 in /  0.5 mm 0 W/m2
19:45 42.6 °F /  5.9 °C 41.4 °F /  5.2 °C 29.9 in /  1012.1 hPa SE 5 mph /  8.0 km/h 8 mph /  12.9 km/h 95 % 0.02 in /  0.5 mm 0 W/m2
20:00 42.6 °F /  5.9 °C 41.2 °F /  5.1 °C 29.9 in /  1011.7 hPa SSE 9 mph /  14.5 km/h 9 mph /  14.5 km/h 95 % 0.02 in /  0.5 mm 0 W/m2
20:05 42.6 °F /  5.9 °C 41.2 °F /  5.1 °C 29.9 in /  1011.7 hPa SE 6 mph /  9.7 km/h 9 mph /  14.5 km/h 95 % 0.03 in /  0.8 mm 0 W/m2
20:10 42.6 °F /  5.9 °C 41.2 °F /  5.1 °C 29.9 in /  1011.4 hPa South 5 mph /  8.0 km/h 9 mph /  14.5 km/h 95 % 0.03 in /  0.8 mm 0 W/m2
20:15 42.6 °F /  5.9 °C 41.2 °F /  5.1 °C 29.9 in /  1011.4 hPa ESE 3 mph /  4.8 km/h 11 mph /  17.7 km/h 95 % 0.02 in /  0.5 mm 0 W/m2
20:25 42.6 °F /  5.9 °C 41.5 °F /  5.3 °C 29.8 in /  1010.7 hPa SSE 3 mph /  4.8 km/h 9 mph /  14.5 km/h 96 % 0.02 in /  0.5 mm 0 W/m2
20:30 42.6 °F /  5.9 °C 41.5 °F /  5.3 °C 29.8 in /  1010.7 hPa SSE 5 mph /  8.0 km/h 9 mph /  14.5 km/h 96 % 0.02 in /  0.5 mm 0 W/m2
20:40 42.6 °F /  5.9 °C 41.7 °F /  5.4 °C 29.8 in /  1010.4 hPa SSE 6 mph /  9.7 km/h 10 mph /  16.1 km/h 96 % 0.02 in /  0.5 mm 0 W/m2
20:45 42.8 °F /  6.0 °C 41.7 °F /  5.4 °C 29.8 in /  1010.4 hPa SSE 4 mph /  6.4 km/h 10 mph /  16.1 km/h 96 % 0.02 in /  0.5 mm 0 W/m2
21:00 43 °F /  6.1 °C 41.9 °F /  5.5 °C 29.8 in /  1010.0 hPa SE 8 mph /  12.9 km/h 12 mph /  19.3 km/h 96 % 0.02 in /  0.5 mm 0 W/m2
21:05 43.2 °F /  6.2 °C 42.1 °F /  5.6 °C 29.8 in /  1009.7 hPa SSE 3 mph /  4.8 km/h 11 mph /  17.7 km/h 96 % 0.02 in /  0.5 mm 0 W/m2
21:10 43.2 °F /  6.2 °C 42.1 °F /  5.6 °C 29.8 in /  1009.7 hPa SSE 5 mph /  8.0 km/h 11 mph /  17.7 km/h 96 % 0.02 in /  0.5 mm 0 W/m2
21:20 43.3 °F /  6.3 °C 42.3 °F /  5.7 °C 29.8 in /  1009.7 hPa SE 6 mph /  9.7 km/h 12 mph /  19.3 km/h 96 % 0.02 in /  0.5 mm 0 W/m2
21:25 43.5 °F /  6.4 °C 42.4 °F /  5.8 °C 29.8 in /  1009.4 hPa SSE 8 mph /  12.9 km/h 13 mph /  20.9 km/h 96 % 0.02 in /  0.5 mm 0 W/m2
21:35 43.3 °F /  6.3 °C 42.3 °F /  5.7 °C 29.8 in /  1009.0 hPa South 4 mph /  6.4 km/h 12 mph /  19.3 km/h 96 % 0.01 in /  0.3 mm 0 W/m2
21:40 43.5 °F /  6.4 °C 42.6 °F /  5.9 °C 29.8 in /  1008.7 hPa South 8 mph /  12.9 km/h 14 mph /  22.5 km/h 97 % 0.01 in /  0.3 mm 0 W/m2
21:45 43.5 °F /  6.4 °C 42.6 °F /  5.9 °C 29.8 in /  1008.4 hPa SE 6 mph /  9.7 km/h 14 mph /  22.5 km/h 97 % 0.01 in /  0.3 mm 0 W/m2
22:05 44.1 °F /  6.7 °C 43.2 °F /  6.2 °C 29.8 in /  1007.7 hPa South 4 mph /  6.4 km/h 14 mph /  22.5 km/h 97 % 0 in /  0.0 mm 0 W/m2
22:20 44.2 °F /  6.8 °C 43.5 °F /  6.4 °C 29.7 in /  1007.3 hPa SSE 3 mph /  4.8 km/h 14 mph /  22.5 km/h 97 % 0.01 in /  0.3 mm 0 W/m2
22:25 44.4 °F /  6.9 °C 43.5 °F /  6.4 °C 29.7 in /  1007.0 hPa South 4 mph /  6.4 km/h 14 mph /  22.5 km/h 97 % 0.01 in /  0.3 mm 0 W/m2
22:30 44.6 °F /  7.0 °C 43.9 °F /  6.6 °C 29.7 in /  1006.7 hPa South 5 mph /  8.0 km/h 15 mph /  24.1 km/h 97 % 0.01 in /  0.3 mm 0 W/m2
22:35 44.8 °F /  7.1 °C 44.1 °F /  6.7 °C 29.7 in /  1006.7 hPa SSE 6 mph /  9.7 km/h 15 mph /  24.1 km/h 97 % 0.01 in /  0.3 mm 0 W/m2
22:40 45 °F /  7.2 °C 44.1 °F /  6.7 °C 29.7 in /  1006.7 hPa SE 10 mph /  16.1 km/h 14 mph /  22.5 km/h 97 % 0.01 in /  0.3 mm 0 W/m2
22:45 45.1 °F /  7.3 °C 44.2 °F /  6.8 °C 29.7 in /  1006.7 hPa South 12 mph /  19.3 km/h 15 mph /  24.1 km/h 97 % 0.01 in /  0.3 mm 0 W/m2
22:50 45.3 °F /  7.4 °C 44.4 °F /  6.9 °C 29.7 in /  1006.3 hPa SSW 6 mph /  9.7 km/h 15 mph /  24.1 km/h 97 % 0.01 in /  0.3 mm 0 W/m2
22:55 45.3 °F /  7.4 °C 44.6 °F /  7.0 °C 29.7 in /  1006.3 hPa South 8 mph /  12.9 km/h 15 mph /  24.1 km/h 97 % 0.02 in /  0.5 mm 0 W/m2
23:00 45.7 °F /  7.6 °C 44.8 °F /  7.1 °C 29.7 in /  1006.0 hPa South 7 mph /  11.3 km/h 12 mph /  19.3 km/h 97 % 0.02 in /  0.5 mm 0 W/m2
23:05 45.9 °F /  7.7 °C 45 °F /  7.2 °C 29.7 in /  1006.0 hPa SSE 6 mph /  9.7 km/h 11 mph /  17.7 km/h 97 % 0.02 in /  0.5 mm 0 W/m2
23:10 46 °F /  7.8 °C 45.3 °F /  7.4 °C 29.7 in /  1005.6 hPa South 9 mph /  14.5 km/h 18 mph /  29.0 km/h 97 % 0.02 in /  0.5 mm 0 W/m2
23:15 46.2 °F /  7.9 °C 45.5 °F /  7.5 °C 29.7 in /  1005.3 hPa South 4 mph /  6.4 km/h 18 mph /  29.0 km/h 97 % 0.03 in /  0.8 mm 0 W/m2
23:20 46.2 °F /  7.9 °C 45.5 °F /  7.5 °C 29.7 in /  1005.3 hPa South 6 mph /  9.7 km/h 13 mph /  20.9 km/h 97 % 0.03 in /  0.8 mm 0 W/m2
23:25 46.2 °F /  7.9 °C 45.5 °F /  7.5 °C 29.7 in /  1005.0 hPa SSE 3 mph /  4.8 km/h 13 mph /  20.9 km/h 97 % 0.03 in /  0.8 mm 0 W/m2
23:30 46.2 °F /  7.9 °C 45.5 °F /  7.5 °C 29.7 in /  1005.0 hPa SSE 7 mph /  11.3 km/h 13 mph /  20.9 km/h 97 % 0.04 in /  1.0 mm 0 W/m2
23:35 46.6 °F /  8.1 °C 45.7 °F /  7.6 °C 29.7 in /  1004.6 hPa SSE 10 mph /  16.1 km/h 13 mph /  20.9 km/h 97 % 0.04 in /  1.0 mm 0 W/m2
23:40 46.6 °F /  8.1 °C 45.9 °F /  7.7 °C 29.7 in /  1004.3 hPa SSE 11 mph /  17.7 km/h 12 mph /  19.3 km/h 97 % 0.04 in /  1.0 mm 0 W/m2
23:45 46.9 °F /  8.3 °C 46 °F /  7.8 °C 29.6 in /  1003.9 hPa South 10 mph /  16.1 km/h 18 mph /  29.0 km/h 97 % 0.04 in /  1.0 mm 0 W/m2
Avec l'autorisation de Weather Underground - 1.5 mb